Time;durP1;ratioP1;P1;durP2;ratioP2;P2;SDS_P1;SDS_P2;PMS_P1;PMS_P2;Temp;Humidity;BMP_temperature;BMP_pressure;BME280_temperature;BME280_humidity;BME280_pressure;Samples;Min_cycle;Max_cycle;Signal;HPM_P1;HPM_P2
2022/11/29 00:00:10;;;;;;;33.58;12.80;;;18.80;99.90;;;;;;7416270;19;20340;-51
2022/11/29 00:02:39;;;;;;;37.05;14.25;;;18.70;99.90;;;;;;7413997;19;19970;-52
2022/11/29 00:05:11;;;;;;;37.72;13.10;;;18.70;99.90;;;;;;7415392;19;20326;-53
2022/11/29 00:07:41;;;;;;;36.10;14.35;;;18.70;99.90;;;;;;7414869;19;19933;-52
2022/11/29 00:10:11;;;;;;;37.03;14.60;;;18.70;99.90;;;;;;7415659;19;19922;-52
2022/11/29 00:12:40;;;;;;;33.47;14.20;;;18.70;99.90;;;;;;7415437;19;19939;-54
2022/11/29 00:15:09;;;;;;;36.38;13.13;;;18.60;99.90;;;;;;7415074;19;19970;-51
2022/11/29 00:17:38;;;;;;;30.38;12.52;;;18.60;99.90;;;;;;7418401;19;19919;-54
2022/11/29 00:20:12;;;;;;;38.03;14.07;;;18.50;99.90;;;;;;7414831;19;20279;-52
2022/11/29 00:22:41;;;;;;;31.20;13.55;;;18.50;99.90;;;;;;7414847;19;20432;-53
2022/11/29 00:25:10;;;;;;;37.55;14.40;;;18.50;99.90;;;;;;7413727;19;19930;-52
2022/11/29 00:27:39;;;;;;;;;;;18.40;99.90;;;;;;7408352;19;19922;-50
2022/11/29 00:30:10;;;;;;;35.55;12.55;;;18.40;99.90;;;;;;7407731;19;19918;-54
2022/11/29 00:32:38;;;;;;;34.33;11.82;;;18.40;99.90;;;;;;7407656;19;20272;-53
2022/11/29 00:35:11;;;;;;;29.92;12.77;;;18.40;99.90;;;;;;7411201;19;20020;-53
2022/11/29 00:37:40;;;;;;;29.48;12.15;;;18.40;99.90;;;;;;7406170;19;19914;-51
2022/11/29 00:40:10;;;;;;;30.73;12.63;;;18.40;99.90;;;;;;7410315;19;19930;-52
2022/11/29 00:42:39;;;;;;;30.65;11.43;;;18.30;99.90;;;;;;7408243;19;19929;-53
2022/11/29 00:45:09;;;;;;;29.67;11.82;;;18.40;99.90;;;;;;7406918;19;19911;-53
2022/11/29 00:47:38;;;;;;;34.47;13.20;;;18.30;99.90;;;;;;7405115;19;19930;-53
2022/11/29 00:50:11;;;;;;;36.15;14.40;;;18.30;99.90;;;;;;7406753;19;20332;-57
2022/11/29 00:52:40;;;;;;;32.63;12.48;;;18.30;99.90;;;;;;7411512;19;19919;-52
2022/11/29 00:55:09;;;;;;;30.20;12.98;;;18.30;99.90;;;;;;7406516;19;19954;-53
2022/11/29 00:57:38;;;;;;;;;;;18.30;99.90;;;;;;7409468;19;19918;-53
2022/11/29 01:00:08;;;;;;;29.65;12.30;;;18.20;99.90;;;;;;7407047;19;19915;-52
2022/11/29 01:02:37;;;;;;;30.65;12.88;;;18.20;99.90;;;;;;7406614;19;19918;-52
2022/11/29 01:05:07;;;;;;;32.40;11.82;;;18.20;99.90;;;;;;7406358;19;19919;-52
2022/11/29 01:07:38;;;;;;;30.00;12.52;;;18.20;99.90;;;;;;7406084;19;19926;-53
2022/11/29 01:10:09;;;;;;;31.98;12.65;;;18.20;99.90;;;;;;7410788;19;19915;-50
2022/11/29 01:12:39;;;;;;;32.85;13.65;;;18.10;99.90;;;;;;7408104;19;19997;-53
2022/11/29 01:15:09;;;;;;;30.35;11.20;;;18.20;99.90;;;;;;7406564;19;19911;-53
2022/11/29 01:17:39;;;;;;;30.55;12.82;;;18.10;99.90;;;;;;7406063;19;19919;-53
2022/11/29 01:20:10;;;;;;;28.25;11.70;;;18.10;99.90;;;;;;7408305;19;19933;-52
2022/11/29 01:22:42;;;;;;;32.30;13.02;;;18.10;99.90;;;;;;7405733;19;19911;-53
2022/11/29 01:25:13;;;;;;;31.17;11.68;;;18.10;99.90;;;;;;7405868;19;19926;-52
2022/11/29 01:27:43;;;;;;;28.42;12.13;;;18.10;99.90;;;;;;7406593;19;19918;-53
2022/11/29 01:30:15;;;;;;;28.02;11.73;;;18.10;99.90;;;;;;7406905;19;19919;-52
2022/11/29 01:32:44;;;;;;;26.23;10.18;;;18.10;99.90;;;;;;7405691;19;20416;-53
2022/11/29 01:35:13;;;;;;;28.95;12.20;;;18.10;99.90;;;;;;7403422;19;19974;-52
2022/11/29 01:37:45;;;;;;;27.67;11.93;;;18.00;99.90;;;;;;7404466;19;19946;-52
2022/11/29 01:40:15;;;;;;;29.88;10.25;;;18.00;99.90;;;;;;7405277;19;19918;-51
2022/11/29 01:42:44;;;;;;;31.95;12.20;;;18.00;99.90;;;;;;7407941;19;19922;-54
2022/11/29 01:45:24;;;;;;;32.25;13.02;;;18.00;99.90;;;;;;7405047;19;19910;-54
2022/11/29 01:47:55;;;;;;;28.75;11.65;;;18.00;99.90;;;;;;7405116;19;20012;-53
2022/11/29 01:50:24;;;;;;;28.75;11.32;;;18.00;99.90;;;;;;7407507;19;20281;-52
2022/11/29 01:52:56;;;;;;;25.52;11.82;;;18.00;99.90;;;;;;7406745;19;19930;-53
2022/11/29 01:55:25;;;;;;;28.08;10.48;;;17.90;99.90;;;;;;7407927;19;19918;-52
2022/11/29 01:57:54;;;;;;;29.38;11.10;;;17.90;99.90;;;;;;7405542;19;20287;-52
2022/11/29 02:00:23;;;;;;;25.92;11.07;;;17.90;99.90;;;;;;7405606;19;20290;-52
2022/11/29 02:02:57;;;;;;;28.42;11.07;;;17.90;99.90;;;;;;7407427;19;19932;-51
2022/11/29 02:05:27;;;;;;;25.67;12.15;;;17.90;99.90;;;;;;7406908;19;19919;-50
2022/11/29 02:08:01;;;;;;;30.58;12.52;;;17.90;99.90;;;;;;7406898;19;19918;-52
2022/11/29 02:10:43;;;;;;;29.20;10.00;;;17.90;99.90;;;;;;7405616;19;19911;-50
2022/11/29 02:13:21;;;;;;;28.73;12.82;;;17.90;99.90;;;;;;7404375;19;19925;-52
2022/11/29 02:16:00;;;;;;;26.35;9.90;;;17.90;99.90;;;;;;7406572;19;19922;-50
2022/11/29 02:18:43;;;;;;;29.63;11.70;;;17.90;99.90;;;;;;7405216;19;19929;-51
2022/11/29 02:21:32;;;;;;;28.25;12.27;;;17.80;99.90;;;;;;7404254;19;19978;-54
2022/11/29 02:24:42;;;;;;;29.20;12.40;;;17.80;99.90;;;;;;7405221;19;19926;-50
2022/11/29 02:27:32;;;;;;;25.67;10.45;;;17.80;99.90;;;;;;7403658;19;19925;-52
2022/11/29 02:30:14;;;;;;;24.45;9.52;;;17.80;99.90;;;;;;7408400;19;20278;-52
2022/11/29 02:32:57;;;;;;;;;;;17.80;99.90;;;;;;7408545;19;19926;-50
2022/11/29 02:35:40;;;;;;;24.88;9.40;;;17.80;99.90;;;;;;7408065;19;19918;-53
2022/11/29 02:38:25;;;;;;;23.73;11.38;;;17.80;99.90;;;;;;7405949;19;19910;-53
2022/11/29 02:41:19;;;;;;;25.23;9.18;;;17.80;99.90;;;;;;7408425;19;19926;-52
2022/11/29 02:44:17;;;;;;;26.55;11.05;;;17.80;99.90;;;;;;7405823;19;19932;-52
2022/11/29 02:46:56;;;;;;;22.73;9.80;;;17.80;99.90;;;;;;7403473;19;20296;-52
2022/11/29 02:49:46;;;;;;;25.23;10.40;;;17.80;99.90;;;;;;7405491;19;20365;-52
2022/11/29 02:52:22;;;;;;;27.52;10.43;;;17.80;99.90;;;;;;7404432;19;19915;-52
2022/11/29 02:54:58;;;;;;;24.00;9.38;;;17.70;99.90;;;;;;7405615;19;19926;-53
2022/11/29 02:57:35;;;;;;;21.00;9.18;;;17.70;99.90;;;;;;7404565;19;19918;-49
2022/11/29 03:00:08;;;;;;;22.88;9.85;;;17.70;99.90;;;;;;7406339;19;19926;-51
2022/11/29 03:02:44;;;;;;;23.23;9.18;;;17.70;99.90;;;;;;7407402;19;20340;-52
2022/11/29 03:05:23;;;;;;;22.25;10.93;;;17.70;99.90;;;;;;7403249;19;19915;-52
2022/11/29 03:07:59;;;;;;;26.38;10.18;;;17.70;99.90;;;;;;7406216;19;19925;-52
2022/11/29 03:10:39;;;;;;;22.95;8.80;;;17.70;99.90;;;;;;7405002;19;19924;-50
2022/11/29 03:13:18;;;;;;;23.75;9.05;;;17.70;99.90;;;;;;7405324;19;19918;-51
2022/11/29 03:15:59;;;;;;;24.48;8.73;;;17.70;99.90;;;;;;7402913;19;19923;-50
2022/11/29 03:18:39;;;;;;;24.38;10.35;;;17.70;99.90;;;;;;7401659;19;19933;-52
2022/11/29 03:21:20;;;;;;;23.58;9.48;;;17.70;99.90;;;;;;7402535;19;19967;-52
2022/11/29 03:23:52;;;;;;;24.55;9.50;;;17.70;99.90;;;;;;7402443;19;19935;-51
2022/11/29 03:26:26;;;;;;;22.05;9.10;;;17.70;99.90;;;;;;7401864;19;19917;-54
2022/11/29 03:29:05;;;;;;;21.05;8.90;;;17.70;99.90;;;;;;7402279;19;19911;-52
2022/11/29 03:31:40;;;;;;;21.50;10.27;;;17.70;99.90;;;;;;7402210;19;19947;-53
2022/11/29 03:34:15;;;;;;;20.85;8.75;;;17.70;99.90;;;;;;7403265;19;19932;-53
2022/11/29 03:36:56;;;;;;;21.90;8.25;;;17.70;99.90;;;;;;7402074;19;19914;-52
2022/11/29 03:39:34;;;;;;;21.05;10.15;;;17.70;99.90;;;;;;7405154;19;19914;-52
2022/11/29 03:42:07;;;;;;;19.92;9.70;;;17.70;99.90;;;;;;7401973;19;20439;-53
2022/11/29 03:44:41;;;;;;;22.58;9.35;;;17.70;99.90;;;;;;7404546;19;19918;-52
2022/11/29 03:47:15;;;;;;;22.92;8.60;;;17.70;99.90;;;;;;7401459;19;19911;-55
2022/11/29 03:49:51;;;;;;;19.58;8.70;;;17.70;99.90;;;;;;7401791;19;19914;-50
2022/11/29 03:52:29;;;;;;;21.60;10.20;;;17.70;99.90;;;;;;7401452;19;19922;-51
2022/11/29 03:55:13;;;;;;;20.63;9.40;;;17.70;99.90;;;;;;7402089;19;19938;-50
2022/11/29 03:57:51;;;;;;;21.40;10.27;;;17.70;99.90;;;;;;7402927;19;20337;-52
2022/11/29 04:00:21;;;;;;;20.15;9.75;;;17.70;99.90;;;;;;7399214;19;19915;-53
2022/11/29 04:03:32;;;;;;;20.27;8.73;;;17.70;99.90;;;;;;7410316;19;19919;-52
2022/11/29 04:06:28;;;;;;;22.67;9.07;;;17.70;99.90;;;;;;7403980;19;19918;-52
2022/11/29 04:09:25;;;;;;;23.20;9.77;;;17.70;99.90;;;;;;7408282;19;20024;-54
2022/11/29 04:12:29;;;;;;;19.52;7.63;;;17.70;99.90;;;;;;7409164;19;20281;-51
2022/11/29 04:15:38;;;;;;;21.77;9.80;;;17.70;99.90;;;;;;7407893;19;19926;-53
2022/11/29 04:18:45;;;;;;;23.77;9.20;;;17.70;99.90;;;;;;7407146;19;19925;-52
2022/11/29 04:21:33;;;;;;;20.75;8.65;;;17.70;99.90;;;;;;7407721;19;19910;-53
2022/11/29 04:24:37;;;;;;;21.25;9.40;;;17.70;99.90;;;;;;7407137;19;19923;-52
2022/11/29 04:27:32;;;;;;;19.02;7.93;;;17.70;99.90;;;;;;7408456;19;19922;-51
2022/11/29 04:30:10;;;;;;;18.80;8.25;;;17.60;99.90;;;;;;7407327;19;20288;-52
2022/11/29 04:33:12;;;;;;;19.50;8.75;;;17.60;99.90;;;;;;7408833;19;19910;-51
2022/11/29 04:36:07;;;;;;;20.70;7.78;;;17.60;99.90;;;;;;7407670;19;19910;-51
2022/11/29 04:38:52;;;;;;;23.23;10.35;;;17.60;99.90;;;;;;7406317;19;19925;-51
2022/11/29 04:41:52;;;;;;;19.73;9.23;;;17.60;99.90;;;;;;7405515;19;20351;-53
2022/11/29 04:44:52;;;;;;;21.40;9.63;;;17.60;99.90;;;;;;7406302;19;19926;-51
2022/11/29 04:47:42;;;;;;;20.02;8.43;;;17.60;99.90;;;;;;7405448;19;19915;-52
2022/11/29 04:50:25;;;;;;;19.30;8.88;;;17.50;99.90;;;;;;7409393;19;19911;-53
2022/11/29 04:53:24;;;;;;;20.00;8.63;;;17.50;99.90;;;;;;7406823;19;19914;-53
2022/11/29 04:56:02;;;;;;;18.42;8.02;;;17.50;99.90;;;;;;7408140;19;19923;-53
2022/11/29 04:58:41;;;;;;;19.02;8.38;;;17.60;99.90;;;;;;7406528;19;19919;-53
2022/11/29 05:01:23;;;;;;;22.75;9.88;;;17.50;99.90;;;;;;7404612;19;19918;-52
2022/11/29 05:03:59;;;;;;;21.08;8.52;;;17.50;99.90;;;;;;7407107;19;19933;-53
2022/11/29 05:06:35;;;;;;;17.85;9.18;;;17.50;99.90;;;;;;7407405;19;19918;-53
2022/11/29 05:09:13;;;;;;;17.13;9.02;;;17.50;99.90;;;;;;7406642;19;19918;-51
2022/11/29 05:12:00;;;;;;;20.20;9.80;;;17.50;99.90;;;;;;7406722;19;19922;-54
2022/11/29 05:14:46;;;;;;;19.42;8.45;;;17.50;99.90;;;;;;7409553;19;20830;-53
2022/11/29 05:17:39;;;;;;;16.85;6.90;;;17.40;99.90;;;;;;7407963;19;19919;-52
2022/11/29 05:20:28;;;;;;;19.20;9.55;;;17.40;99.90;;;;;;7407640;19;19930;-53
2022/11/29 05:23:13;;;;;;;18.25;8.00;;;17.40;99.90;;;;;;7401664;19;19921;-52
2022/11/29 05:25:48;;;;;;;18.80;8.95;;;17.40;99.90;;;;;;7406975;19;20377;-52
2022/11/29 05:28:23;;;;;;;17.52;7.57;;;17.40;99.90;;;;;;7406357;19;19921;-53
2022/11/29 05:31:23;;;;;;;16.58;7.63;;;17.40;99.90;;;;;;7405832;19;19994;-52
2022/11/29 05:34:22;;;;;;;18.05;8.50;;;17.50;99.90;;;;;;7406272;19;19946;-53
2022/11/29 05:37:02;;;;;;;17.50;8.30;;;17.40;99.90;;;;;;7406313;19;19922;-53
2022/11/29 05:39:40;;;;;;;20.20;7.57;;;17.40;99.90;;;;;;7404981;19;20257;-53
2022/11/29 05:42:36;;;;;;;19.33;8.73;;;17.40;99.90;;;;;;7404930;19;19930;-52
2022/11/29 05:45:10;;;;;;;17.70;8.00;;;17.40;99.90;;;;;;7409708;19;19919;-52
2022/11/29 05:47:48;;;;;;;15.07;6.30;;;17.40;99.90;;;;;;7405261;19;19918;-53
2022/11/29 05:50:24;;;;;;;17.88;7.15;;;17.40;99.90;;;;;;7405128;19;19919;-53
2022/11/29 05:53:00;;;;;;;17.50;8.25;;;17.30;99.90;;;;;;7403727;19;19922;-54
2022/11/29 05:55:39;;;;;;;16.10;7.40;;;17.30;99.90;;;;;;7405172;19;19986;-53
2022/11/29 05:58:16;;;;;;;14.60;6.65;;;17.30;99.90;;;;;;7404584;19;20359;-53
2022/11/29 06:00:51;;;;;;;15.77;7.32;;;17.30;99.90;;;;;;7403488;19;19990;-53
2022/11/29 06:03:32;;;;;;;16.90;6.65;;;17.30;99.90;;;;;;7405968;19;19923;-53
2022/11/29 06:06:07;;;;;;;16.40;7.95;;;17.30;99.90;;;;;;7407215;19;19918;-55
2022/11/29 06:08:41;;;;;;;17.23;7.70;;;17.30;99.90;;;;;;7406662;19;19925;-54
2022/11/29 06:11:17;;;;;;;16.13;7.93;;;17.30;99.90;;;;;;7405761;19;19918;-53
2022/11/29 06:14:00;;;;;;;15.00;6.32;;;17.30;99.90;;;;;;7406373;19;19929;-51
2022/11/29 06:16:50;;;;;;;17.90;7.55;;;17.30;99.90;;;;;;7407887;19;19923;-54
2022/11/29 06:19:52;;;;;;;16.10;6.55;;;17.30;99.90;;;;;;7402917;19;19939;-53
2022/11/29 06:22:28;;;;;;;;;;;17.30;99.90;;;;;;7407054;19;19919;-51
2022/11/29 06:25:09;;;;;;;14.70;6.97;;;17.30;99.90;;;;;;7406850;19;19929;-54
2022/11/29 06:27:51;;;;;;;15.35;6.95;;;17.30;99.90;;;;;;7403622;19;19923;-54
2022/11/29 06:30:24;;;;;;;17.40;6.03;;;17.30;99.90;;;;;;7404091;19;19935;-50
2022/11/29 06:33:04;;;;;;;14.45;5.97;;;17.20;99.90;;;;;;7407004;19;20351;-51
2022/11/29 06:35:44;;;;;;;14.20;7.75;;;17.20;99.90;;;;;;7408934;19;19982;-53
2022/11/29 06:38:22;;;;;;;16.30;7.53;;;17.30;99.90;;;;;;7405483;19;19934;-53
2022/11/29 06:40:52;;;;;;;15.55;6.53;;;17.20;99.90;;;;;;7401292;19;19918;-52
2022/11/29 06:43:22;;;;;;;14.02;6.50;;;17.20;99.90;;;;;;7404600;19;19923;-53
2022/11/29 06:45:54;;;;;;;14.55;6.07;;;17.30;99.90;;;;;;7406433;19;20270;-54
2022/11/29 06:48:27;;;;;;;15.23;6.75;;;17.20;99.90;;;;;;7400898;19;19926;-54
2022/11/29 06:51:05;;;;;;;13.50;5.30;;;17.20;99.90;;;;;;7404208;19;19954;-56
2022/11/29 06:53:43;;;;;;;14.80;6.40;;;17.20;99.90;;;;;;7404041;19;19922;-53
2022/11/29 06:56:22;;;;;;;14.15;6.85;;;17.20;99.90;;;;;;7402955;19;19923;-53
2022/11/29 06:59:03;;;;;;;13.50;5.90;;;17.20;99.90;;;;;;7405461;19;19930;-50
2022/11/29 07:01:43;;;;;;;12.93;6.13;;;17.20;99.90;;;;;;7402048;19;19911;-52
2022/11/29 07:04:38;;;;;;;15.48;7.20;;;17.20;99.90;;;;;;7399858;19;19919;-53
2022/11/29 07:07:14;;;;;;;15.38;5.72;;;17.20;99.90;;;;;;7404349;19;19966;-50
2022/11/29 07:09:44;;;;;;;14.25;7.43;;;17.20;99.90;;;;;;7404628;19;20337;-52
2022/11/29 07:12:14;;;;;;;14.90;7.40;;;17.20;99.90;;;;;;7402771;19;20374;-53
2022/11/29 07:14:44;;;;;;;14.50;6.65;;;17.20;99.90;;;;;;7402741;19;19914;-52
2022/11/29 07:17:20;;;;;;;13.82;6.85;;;17.20;99.90;;;;;;7403274;19;19919;-50
2022/11/29 07:20:04;;;;;;;14.23;6.28;;;17.20;99.90;;;;;;7402461;19;19919;-52
2022/11/29 07:22:48;;;;;;;14.90;6.75;;;17.10;99.90;;;;;;7402437;19;19922;-52
2022/11/29 07:25:29;;;;;;;13.40;6.10;;;17.20;99.90;;;;;;7406532;19;19934;-52
2022/11/29 07:28:09;;;;;;;13.55;6.60;;;17.10;99.90;;;;;;7401674;19;19925;-52
2022/11/29 07:30:48;;;;;;;13.63;5.60;;;17.10;99.90;;;;;;7406863;19;19910;-53
2022/11/29 07:33:25;;;;;;;14.93;7.22;;;17.10;99.90;;;;;;7405090;19;19926;-50
2022/11/29 07:36:03;;;;;;;15.30;6.95;;;17.10;99.90;;;;;;7405496;19;20359;-52
2022/11/29 07:38:45;;;;;;;12.60;6.43;;;17.10;99.90;;;;;;7406982;19;19930;-52
2022/11/29 07:41:22;;;;;;;12.25;5.00;;;17.10;99.90;;;;;;7406477;19;19927;-53
2022/11/29 07:43:58;;;;;;;12.25;5.03;;;17.10;99.90;;;;;;7408805;19;20348;-52
2022/11/29 07:46:27;;;;;;;12.82;5.95;;;17.10;99.90;;;;;;7408449;19;19922;-53
2022/11/29 07:48:56;;;;;;;14.75;7.07;;;17.10;99.90;;;;;;7408010;19;19946;-52
2022/11/29 07:51:26;;;;;;;14.57;5.47;;;17.10;99.90;;;;;;7410659;19;19919;-52
2022/11/29 07:53:58;;;;;;;13.50;5.20;;;17.10;99.90;;;;;;7408659;19;19919;-55
2022/11/29 07:56:27;;;;;;;11.93;5.15;;;17.30;99.90;;;;;;7408386;19;19922;-52
2022/11/29 07:58:56;;;;;;;13.27;6.40;;;17.30;99.90;;;;;;7409578;19;19922;-49
2022/11/29 08:01:24;;;;;;;12.35;5.60;;;17.40;99.90;;;;;;7387416;19;19930;-57
2022/11/29 08:03:53;;;;;;;15.30;6.70;;;17.50;99.90;;;;;;7403754;19;19925;-53
2022/11/29 08:06:26;;;;;;;13.70;6.28;;;17.70;99.90;;;;;;7404203;19;19926;-53
2022/11/29 08:08:59;;;;;;;11.88;5.07;;;17.80;99.90;;;;;;7405574;19;19936;-58
2022/11/29 08:11:28;;;;;;;11.30;5.18;;;17.80;99.90;;;;;;7406750;19;20282;-59
2022/11/29 08:13:58;;;;;;;12.60;5.50;;;18.00;99.90;;;;;;7409993;19;20272;-56
2022/11/29 08:16:27;;;;;;;12.90;5.45;;;18.10;99.90;;;;;;7410463;19;19990;-59
2022/11/29 08:18:56;;;;;;;11.75;6.15;;;18.30;99.90;;;;;;7408473;19;19926;-58
2022/11/29 08:21:26;;;;;;;10.68;5.82;;;18.40;99.90;;;;;;7406733;19;19927;-59
2022/11/29 08:23:57;;;;;;;10.73;5.68;;;18.40;99.90;;;;;;7409024;19;19926;-56
2022/11/29 08:26:28;;;;;;;13.07;6.03;;;18.60;99.90;;;;;;7408182;19;19919;-57
2022/11/29 08:28:57;;;;;;;14.27;6.35;;;18.70;99.90;;;;;;7410330;19;19950;-57
2022/11/29 08:31:26;;;;;;;11.13;5.55;;;18.70;99.90;;;;;;7408255;19;19934;-54
2022/11/29 08:33:54;;;;;;;11.25;5.82;;;18.70;99.90;;;;;;7410933;19;19918;-50
2022/11/29 08:36:23;;;;;;;12.45;5.70;;;18.90;99.90;;;;;;7406592;19;20347;-50
2022/11/29 08:38:52;;;;;;;11.48;5.82;;;18.90;99.90;;;;;;7406872;19;19928;-55
2022/11/29 08:41:24;;;;;;;;;;;19.00;99.90;;;;;;7410357;19;20020;-53
2022/11/29 08:43:53;;;;;;;10.75;5.07;;;19.00;99.90;;;;;;7407772;19;19934;-55
2022/11/29 08:47:34;;;;;;;12.82;4.55;;;19.10;99.90;;;;;;7410020;19;19918;-54
2022/11/29 08:49:11;;;;;;;12.60;6.22;;;19.20;99.90;;;;;;7409520;19;19922;-57
2022/11/29 08:51:40;;;;;;;11.80;5.45;;;19.20;99.90;;;;;;7408605;19;19915;-53
2022/11/29 08:54:06;;;;;;;11.90;5.50;;;19.30;99.90;;;;;;7406302;19;19915;-59
2022/11/29 08:56:39;;;;;;;12.95;5.88;;;19.30;99.90;;;;;;7406087;19;19918;-54
2022/11/29 08:59:08;;;;;;;9.32;4.53;;;19.40;99.90;;;;;;7408297;19;20016;-53
2022/11/29 09:01:37;;;;;;;10.75;5.35;;;19.30;99.90;;;;;;7406026;19;20030;-56
2022/11/29 09:04:09;;;;;;;10.25;5.32;;;19.40;99.90;;;;;;7408719;19;20367;-52
2022/11/29 09:06:41;;;;;;;10.20;5.43;;;19.40;99.90;;;;;;7408036;19;19962;-52
2022/11/29 09:09:10;;;;;;;11.93;5.63;;;19.50;99.90;;;;;;7403204;19;19973;-50
2022/11/29 09:11:42;;;;;;;9.82;5.60;;;19.50;99.90;;;;;;7408508;19;20359;-54
2022/11/29 09:14:16;;;;;;;9.90;4.63;;;19.50;99.90;;;;;;7405563;19;20269;-54
2022/11/29 09:16:45;;;;;;;9.88;5.03;;;19.50;99.90;;;;;;7402977;19;20016;-56
2022/11/29 09:19:16;;;;;;;11.95;5.28;;;19.60;99.90;;;;;;7404283;19;19931;-48
2022/11/29 09:21:45;;;;;;;10.20;5.22;;;19.50;99.90;;;;;;7401591;19;19961;-54
2022/11/29 09:24:14;;;;;;;10.30;5.03;;;19.50;99.90;;;;;;7408027;19;20351;-53
2022/11/29 09:26:47;;;;;;;9.50;5.25;;;19.50;99.90;;;;;;7404048;19;19929;-52
2022/11/29 09:29:18;;;;;;;10.90;4.63;;;19.60;99.90;;;;;;7406131;19;19917;-54
2022/11/29 09:31:47;;;;;;;9.35;4.75;;;19.70;99.90;;;;;;7403732;19;19910;-55
2022/11/29 09:34:17;;;;;;;10.82;4.55;;;19.70;99.90;;;;;;7408285;19;19918;-55
2022/11/29 09:36:47;;;;;;;9.35;5.40;;;19.90;99.90;;;;;;7404529;19;19970;-48
2022/11/29 09:39:16;;;;;;;11.25;4.65;;;19.90;99.90;;;;;;7406810;19;19922;-51
2022/11/29 09:42:27;;;;;;;8.38;5.15;;;19.70;99.90;;;;;;7403381;19;19922;-53
2022/11/29 09:45:04;;;;;;;9.32;5.00;;;19.70;99.90;;;;;;7404600;19;19919;-53
2022/11/29 09:48:01;;;;;;;10.00;4.97;;;19.70;99.90;;;;;;7403874;19;19927;-51
2022/11/29 09:50:35;;;;;;;11.38;5.22;;;19.70;99.90;;;;;;7404059;19;19974;-56
2022/11/29 09:53:27;;;;;;;10.00;4.40;;;19.70;99.90;;;;;;7406189;19;20312;-44
2022/11/29 09:56:09;;;;;;;10.00;4.20;;;19.70;99.90;;;;;;7405148;19;19922;-42
2022/11/29 09:58:47;;;;;;;8.10;4.32;;;19.70;99.90;;;;;;7402153;19;19928;-45
2022/11/29 10:01:22;;;;;;;14.07;4.95;;;19.80;99.90;;;;;;7404774;19;19936;-45
2022/11/29 10:03:54;;;;;;;9.48;4.22;;;19.80;99.90;;;;;;7404680;19;19941;-42
2022/11/29 10:06:26;;;;;;;11.38;4.65;;;19.90;99.90;;;;;;7402563;19;19915;-42
2022/11/29 10:09:01;;;;;;;9.55;3.42;;;19.90;99.90;;;;;;7403913;19;19922;-44
2022/11/29 10:11:34;;;;;;;8.20;4.65;;;19.70;99.90;;;;;;7405462;19;20340;-46
2022/11/29 10:14:14;;;;;;;7.45;4.70;;;19.70;99.90;;;;;;7402493;19;19947;-43
2022/11/29 10:16:49;;;;;;;9.55;4.40;;;19.70;99.90;;;;;;7403143;19;19918;-44
2022/11/29 10:19:26;;;;;;;9.25;3.50;;;19.70;99.90;;;;;;7403260;19;20292;-42
2022/11/29 10:22:03;;;;;;;9.18;4.38;;;19.70;99.90;;;;;;7403532;19;19915;-43
2022/11/29 10:24:34;;;;;;;8.30;3.50;;;19.70;99.90;;;;;;7400382;19;20272;-46
2022/11/29 10:27:04;;;;;;;8.05;3.63;;;19.70;99.90;;;;;;7403693;19;19922;-51
2022/11/29 10:29:35;;;;;;;8.70;3.22;;;19.70;99.90;;;;;;7403020;19;20280;-44
2022/11/29 10:32:05;;;;;;;9.38;4.63;;;19.70;99.90;;;;;;7402186;19;19925;-47
2022/11/29 10:34:35;;;;;;;9.00;4.70;;;19.70;99.90;;;;;;7402914;19;19918;-43
2022/11/29 10:37:04;;;;;;;9.63;3.78;;;19.70;99.90;;;;;;7401609;19;20238;-43
2022/11/29 10:39:39;;;;;;;7.10;3.63;;;19.80;99.90;;;;;;7401042;19;20263;-42
2022/11/29 10:42:47;;;;;;;8.55;4.65;;;19.80;99.90;;;;;;7402252;19;19925;-45
2022/11/29 10:45:11;;;;;;;8.18;3.72;;;19.80;99.90;;;;;;7402505;19;19918;-43
2022/11/29 10:47:40;;;;;;;8.93;4.18;;;19.80;99.90;;;;;;7402282;19;19982;-43
2022/11/29 10:50:14;;;;;;;7.68;4.50;;;19.80;99.90;;;;;;7401970;19;19997;-46
2022/11/29 10:52:43;;;;;;;9.07;4.55;;;19.80;99.90;;;;;;7402886;19;19922;-44
2022/11/29 10:55:16;;;;;;;11.07;4.53;;;19.80;99.90;;;;;;7402273;19;19929;-55
2022/11/29 10:58:11;;;;;;;8.25;4.45;;;19.80;99.90;;;;;;7402378;19;19923;-55
2022/11/29 11:00:56;;;;;;;9.65;4.72;;;19.80;99.90;;;;;;7402583;19;20360;-52
2022/11/29 11:03:36;;;;;;;8.90;3.75;;;19.80;99.90;;;;;;7402099;19;19914;-48
2022/11/29 11:06:09;;;;;;;8.80;4.57;;;19.70;99.90;;;;;;7401266;19;19926;-51
2022/11/29 11:08:41;;;;;;;9.48;4.75;;;19.70;99.90;;;;;;7401639;19;19915;-54
2022/11/29 11:11:11;;;;;;;7.97;3.78;;;19.80;99.90;;;;;;7399762;19;19922;-55
2022/11/29 11:13:40;;;;;;;8.45;3.97;;;19.70;99.90;;;;;;7403159;19;19926;-55
2022/11/29 11:16:16;;;;;;;;;;;19.70;99.90;;;;;;7404758;19;20273;-54
2022/11/29 11:18:46;;;;;;;6.97;4.05;;;19.60;99.90;;;;;;7403117;19;19919;-50
2022/11/29 11:21:16;;;;;;;6.90;2.95;;;19.60;99.90;;;;;;7399536;19;20340;-51
2022/11/29 11:23:58;;;;;;;7.57;3.55;;;19.70;99.90;;;;;;7401596;19;19922;-49
2022/11/29 11:26:28;;;;;;;6.93;3.97;;;19.70;99.90;;;;;;7401538;19;19938;-57
2022/11/29 11:28:58;;;;;;;;;;;19.70;99.90;;;;;;7406769;19;19923;-57
2022/11/29 11:31:33;;;;;;;8.23;3.08;;;19.60;99.90;;;;;;7401293;19;20521;-55
2022/11/29 11:34:28;;;;;;;7.63;3.47;;;19.60;99.90;;;;;;7404073;19;19922;-56
2022/11/29 11:37:18;;;;;;;8.05;3.67;;;19.60;99.90;;;;;;7401098;19;19922;-55
2022/11/29 11:39:48;;;;;;;7.40;4.45;;;19.60;99.90;;;;;;7400440;19;19926;-57
2022/11/29 11:45:02;;;;;;;8.20;3.78;;;19.60;99.90;;;;;;7402155;19;19922;-49
2022/11/29 11:47:36;;;;;;;6.35;3.63;;;19.50;99.90;;;;;;7401432;19;19919;-51
2022/11/29 11:50:14;;;;;;;6.85;3.90;;;19.60;99.90;;;;;;7401290;19;19938;-49
2022/11/29 11:52:47;;;;;;;8.63;3.83;;;19.60;99.90;;;;;;7402558;19;19954;-52
2022/11/29 11:55:32;;;;;;;7.00;3.45;;;19.60;99.90;;;;;;7400770;19;20353;-52
2022/11/29 11:58:07;;;;;;;8.57;3.78;;;19.60;99.90;;;;;;7401268;19;19927;-50
2022/11/29 12:00:41;;;;;;;6.10;2.75;;;19.60;99.90;;;;;;7401808;19;19919;-49
2022/11/29 12:03:32;;;;;;;7.70;2.92;;;19.60;99.90;;;;;;7398957;19;19927;-51
2022/11/29 12:06:25;;;;;;;4.88;2.38;;;19.60;99.90;;;;;;7398666;19;19978;-48
2022/11/29 12:08:57;;;;;;;7.15;2.72;;;19.60;99.90;;;;;;7401172;19;19919;-51
2022/11/29 12:11:28;;;;;;;5.85;2.78;;;19.60;99.90;;;;;;7399744;19;19919;-49
2022/11/29 12:14:00;;;;;;;7.45;2.88;;;19.60;99.90;;;;;;7400047;19;20384;-51
2022/11/29 12:16:34;;;;;;;6.78;3.10;;;19.60;99.90;;;;;;7401123;19;19930;-49
2022/11/29 12:19:25;;;;;;;7.05;3.75;;;19.60;99.90;;;;;;7400226;19;19919;-51
2022/11/29 12:22:01;;;;;;;5.72;2.88;;;19.60;99.90;;;;;;7400904;19;19930;-49
2022/11/29 12:24:35;;;;;;;5.97;3.22;;;19.60;99.90;;;;;;7406324;19;19927;-49
2022/11/29 12:27:06;;;;;;;6.63;3.55;;;19.60;99.90;;;;;;7407890;19;19918;-49
2022/11/29 12:29:36;;;;;;;6.00;2.65;;;19.50;99.90;;;;;;7406318;19;20284;-47
2022/11/29 12:32:18;;;;;;;7.43;3.55;;;19.60;99.90;;;;;;7406407;19;19922;-47
2022/11/29 12:35:02;;;;;;;6.05;3.53;;;19.60;99.90;;;;;;7407007;19;19926;-46
2022/11/29 12:37:37;;;;;;;4.72;2.90;;;19.60;99.90;;;;;;7407326;19;19982;-46
2022/11/29 12:40:11;;;;;;;6.07;3.35;;;19.60;99.90;;;;;;7407881;19;20535;-47
2022/11/29 12:42:52;;;;;;;6.40;3.25;;;19.60;99.90;;;;;;7406758;19;19939;-45
2022/11/29 12:45:31;;;;;;;5.93;2.90;;;19.60;99.90;;;;;;7406238;19;19922;-46
2022/11/29 12:48:12;;;;;;;5.75;3.33;;;19.60;99.90;;;;;;7406993;19;20349;-49
2022/11/29 12:50:53;;;;;;;6.75;3.47;;;19.60;99.90;;;;;;7407861;19;19922;-48
2022/11/29 12:53:33;;;;;;;7.78;3.55;;;19.50;99.90;;;;;;7407206;19;19934;-47
2022/11/29 12:56:12;;;;;;;6.97;2.83;;;19.50;99.90;;;;;;7405670;19;19926;-47
2022/11/29 12:58:55;;;;;;;6.80;3.75;;;19.50;99.90;;;;;;7407121;19;19922;-46
2022/11/29 13:01:31;;;;;;;5.50;3.22;;;19.60;99.90;;;;;;7403523;19;19970;-49
2022/11/29 13:04:09;;;;;;;6.22;3.15;;;19.50;99.90;;;;;;7403454;19;19931;-54
2022/11/29 13:06:49;;;;;;;6.03;2.83;;;19.50;99.90;;;;;;7404658;19;19922;-52
2022/11/29 13:09:57;;;;;;;6.28;2.85;;;19.50;99.90;;;;;;7403315;19;19982;-51
2022/11/29 13:12:34;;;;;;;6.25;3.70;;;19.50;99.90;;;;;;7405795;19;19939;-47
2022/11/29 13:15:07;;;;;;;7.07;2.40;;;19.60;99.90;;;;;;7404219;19;20353;-51
2022/11/29 13:17:44;;;;;;;6.78;3.67;;;19.60;99.90;;;;;;7403714;19;19915;-57
2022/11/29 13:20:27;;;;;;;6.15;2.30;;;19.60;99.90;;;;;;7401696;19;19923;-56
2022/11/29 13:23:06;;;;;;;6.57;3.58;;;19.60;99.90;;;;;;7403271;19;20369;-54
2022/11/29 13:25:40;;;;;;;7.18;2.97;;;19.60;99.90;;;;;;7405757;19;19974;-53
2022/11/29 13:28:13;;;;;;;6.07;2.85;;;19.70;99.90;;;;;;7403765;19;20366;-54
2022/11/29 13:30:42;;;;;;;5.88;3.20;;;19.70;99.90;;;;;;7250834;19;144661;-54
2022/11/29 13:33:22;;;;;;;4.45;2.90;;;19.80;99.90;;;;;;7357606;19;80111;-51